Time;durP1;ratioP1;P1;durP2;ratioP2;P2;SDS_P1;SDS_P2;PMS_P1;PMS_P2;Temp;Humidity;BMP_temperature;BMP_pressure;BME280_temperature;BME280_humidity;BME280_pressure;Samples;Min_cycle;Max_cycle;Signal;HPM_P1;HPM_P2
2024/04/17 00:00:13;;;;;;;0.40;0.10;;;7.90;99.90;;;;;;4479519;26;20068;-57
2024/04/17 00:02:14;;;;;;;0.20;0.00;;;7.80;99.90;;;;;;4478833;26;20015;-61
2024/04/17 00:04:15;;;;;;;0.20;0.10;;;7.80;99.90;;;;;;4480305;26;20008;-58
2024/04/17 00:06:16;;;;;;;0.50;0.10;;;7.70;99.90;;;;;;4478597;26;19996;-55
2024/04/17 00:08:17;;;;;;;1.53;0.20;;;7.70;99.90;;;;;;4479430;26;20084;-60
2024/04/17 00:10:19;;;;;;;0.20;0.17;;;7.60;99.90;;;;;;4478984;26;20012;-58
2024/04/17 00:12:21;;;;;;;0.80;0.20;;;7.60;99.90;;;;;;4479420;26;20064;-56
2024/04/17 00:14:23;;;;;;;0.07;0.00;;;7.60;99.90;;;;;;4479035;26;20064;-63
2024/04/17 00:16:24;;;;;;;0.67;0.17;;;7.50;99.90;;;;;;4479650;26;20015;-58
2024/04/17 00:18:25;;;;;;;0.57;0.10;;;7.50;99.90;;;;;;4478068;26;20415;-60
2024/04/17 00:20:27;;;;;;;0.40;0.20;;;7.50;99.90;;;;;;4479102;26;19999;-58
2024/04/17 00:22:28;;;;;;;0.37;0.10;;;7.40;99.90;;;;;;4478067;26;20413;-56
2024/04/17 00:24:29;;;;;;;0.63;0.10;;;7.40;99.90;;;;;;4478784;26;20512;-56
2024/04/17 00:26:30;;;;;;;2.10;0.07;;;7.50;99.90;;;;;;4478593;26;20432;-55
2024/04/17 00:28:32;;;;;;;0.20;0.10;;;7.40;99.90;;;;;;4478354;26;20068;-60
2024/04/17 00:30:33;;;;;;;0.43;0.10;;;7.40;99.90;;;;;;4479270;26;20015;-53
2024/04/17 00:32:34;;;;;;;0.20;0.10;;;7.40;99.90;;;;;;4477774;26;20016;-56
2024/04/17 00:34:35;;;;;;;0.30;0.00;;;7.40;99.90;;;;;;4479815;26;20074;-58
2024/04/17 00:36:37;;;;;;;1.20;0.20;;;7.40;99.90;;;;;;4478762;26;20007;-62
2024/04/17 00:38:38;;;;;;;0.30;0.10;;;7.50;99.90;;;;;;4477182;26;20500;-61
2024/04/17 00:40:39;;;;;;;0.20;0.13;;;7.50;99.90;;;;;;4477368;26;20523;-59
2024/04/17 00:42:40;;;;;;;0.80;0.10;;;7.40;99.90;;;;;;4480004;26;20041;-60
2024/04/17 00:44:42;;;;;;;0.63;0.10;;;7.50;99.90;;;;;;4478265;26;20016;-58
2024/04/17 00:46:44;;;;;;;0.20;0.20;;;7.50;99.90;;;;;;4479153;26;20495;-61
2024/04/17 00:48:45;;;;;;;1.63;0.40;;;7.50;99.90;;;;;;4478520;26;20012;-58
2024/04/17 00:50:48;;;;;;;0.30;0.10;;;7.40;99.90;;;;;;4479518;26;20007;-60
2024/04/17 00:52:50;;;;;;;0.30;0.20;;;7.40;99.90;;;;;;4479372;26;20356;-60
2024/04/17 00:54:52;;;;;;;0.17;0.00;;;7.50;99.90;;;;;;4477918;26;20015;-57
2024/04/17 00:56:55;;;;;;;0.73;0.10;;;7.50;99.90;;;;;;4479448;26;20397;-60
2024/04/17 00:58:57;;;;;;;1.50;0.10;;;7.50;99.90;;;;;;4478261;26;20004;-62
2024/04/17 01:00:58;;;;;;;0.10;0.00;;;7.50;99.90;;;;;;4479760;26;20072;-60
2024/04/17 01:02:59;;;;;;;0.07;0.00;;;7.50;99.90;;;;;;4478258;26;20003;-56
2024/04/17 01:07:12;;;;;;;1.10;0.20;;;7.40;99.90;;;;;;4527412;21;21752;-59
2024/04/17 01:09:13;;;;;;;0.87;0.17;;;7.40;99.90;;;;;;4446634;26;20466;-60
2024/04/17 01:11:14;;;;;;;0.60;0.10;;;7.50;99.90;;;;;;4449399;26;20340;-56
2024/04/17 01:13:15;;;;;;;0.20;0.10;;;7.50;99.90;;;;;;4448187;26;20073;-59
2024/04/17 01:15:36;;;;;;;0.30;0.00;;;7.50;99.90;;;;;;4448771;26;20015;-56
2024/04/17 01:17:38;;;;;;;0.28;0.10;;;7.50;99.90;;;;;;4448042;26;20008;-59
2024/04/17 01:19:40;;;;;;;0.37;0.07;;;7.50;99.90;;;;;;4449165;26;20016;-59
2024/04/17 01:21:42;;;;;;;0.10;0.00;;;7.60;99.90;;;;;;4433860;26;20016;-57
2024/04/17 01:23:43;;;;;;;0.20;0.10;;;7.60;99.90;;;;;;4448646;26;20092;-53
2024/04/17 01:25:44;;;;;;;0.37;0.10;;;7.60;99.90;;;;;;4447619;26;20015;-57
2024/04/17 01:27:45;;;;;;;0.20;0.10;;;7.50;99.90;;;;;;4448713;26;20008;-56
2024/04/17 01:29:46;;;;;;;0.77;0.73;;;7.50;99.90;;;;;;4450778;26;20344;-57
2024/04/17 01:31:47;;;;;;;0.70;0.50;;;7.40;99.90;;;;;;4454262;26;20352;-57
2024/04/17 01:33:48;;;;;;;0.33;0.13;;;7.50;99.90;;;;;;4454346;26;20007;-55
2024/04/17 01:35:49;;;;;;;0.20;0.10;;;7.50;99.90;;;;;;4454354;26;20019;-59
2024/04/17 01:37:50;;;;;;;0.07;0.00;;;7.50;99.90;;;;;;4455404;26;20405;-57
2024/04/17 01:39:51;;;;;;;0.37;0.10;;;7.40;99.90;;;;;;4453498;26;20420;-57
2024/04/17 01:41:52;;;;;;;0.63;0.10;;;7.40;99.90;;;;;;4455526;26;20072;-58
2024/04/17 01:43:54;;;;;;;0.60;0.10;;;7.40;99.90;;;;;;4454100;26;20077;-58
2024/04/17 01:45:55;;;;;;;1.03;0.10;;;7.50;99.90;;;;;;4454500;26;20076;-58
2024/04/17 01:47:56;;;;;;;1.50;0.20;;;7.50;99.90;;;;;;4454197;26;20072;-56
2024/04/17 01:49:57;;;;;;;1.33;0.17;;;7.50;99.90;;;;;;4455332;26;20015;-58
2024/04/17 01:51:58;;;;;;;2.47;0.03;;;7.50;99.90;;;;;;4453959;26;20773;-59
2024/04/17 01:53:59;;;;;;;2.80;0.30;;;7.50;99.90;;;;;;4455071;26;20389;-59
2024/04/17 01:56:00;;;;;;;2.53;0.10;;;7.40;99.90;;;;;;4453991;26;20077;-60
2024/04/17 01:58:02;;;;;;;1.03;0.10;;;7.50;99.90;;;;;;4454975;26;20012;-58
2024/04/17 02:00:03;;;;;;;2.53;0.20;;;7.50;99.90;;;;;;4454158;26;20412;-58
2024/04/17 02:02:05;;;;;;;1.33;0.20;;;7.50;99.90;;;;;;4453172;26;20000;-60
2024/04/17 02:04:06;;;;;;;0.73;0.20;;;7.50;99.90;;;;;;4454485;26;20012;-60
2024/04/17 02:06:07;;;;;;;0.27;0.23;;;7.40;99.90;;;;;;4453187;26;20058;-60
2024/04/17 02:08:10;;;;;;;2.03;0.80;;;7.40;99.90;;;;;;4454732;26;20080;-61
2024/04/17 02:10:11;;;;;;;0.37;0.20;;;7.40;99.90;;;;;;4452871;26;20077;-59
2024/04/17 02:12:12;;;;;;;3.23;0.47;;;7.50;99.90;;;;;;4454181;26;20008;-61
2024/04/17 02:14:13;;;;;;;1.20;0.77;;;7.40;99.90;;;;;;4453107;26;20012;-60
2024/04/17 02:16:14;;;;;;;0.43;0.10;;;7.50;99.90;;;;;;4453875;26;20082;-58
2024/04/17 02:18:16;;;;;;;1.20;0.10;;;7.40;99.90;;;;;;4453123;26;20084;-60
2024/04/17 02:20:17;;;;;;;0.73;0.47;;;7.30;99.90;;;;;;4454542;26;20016;-61
2024/04/17 02:22:18;;;;;;;1.37;0.10;;;7.30;99.90;;;;;;4451844;26;20015;-60
2024/04/17 02:24:19;;;;;;;0.40;0.10;;;7.20;99.90;;;;;;4452324;26;20008;-58
2024/04/17 02:26:20;;;;;;;0.07;0.00;;;7.10;99.90;;;;;;4433062;26;20393;-58
2024/04/17 02:28:21;;;;;;;0.60;0.00;;;7.10;99.90;;;;;;4440458;26;20517;-59
2024/04/17 02:30:22;;;;;;;0.33;0.00;;;7.00;99.90;;;;;;4453210;26;20008;-58
2024/04/17 02:32:23;;;;;;;0.10;0.00;;;6.90;99.90;;;;;;4451489;26;20008;-55
2024/04/17 02:34:24;;;;;;;0.23;0.10;;;6.90;99.90;;;;;;4453783;26;20004;-59
2024/04/17 02:36:25;;;;;;;0.10;0.00;;;6.80;99.90;;;;;;4453268;26;20012;-59
2024/04/17 02:38:26;;;;;;;1.23;0.07;;;6.80;99.90;;;;;;4428124;26;20076;-58
2024/04/17 02:40:28;;;;;;;0.40;0.20;;;6.60;99.90;;;;;;4429115;26;20012;-55
2024/04/17 02:42:29;;;;;;;0.23;0.17;;;6.60;99.90;;;;;;4434235;26;20440;-58
2024/04/17 02:44:30;;;;;;;0.17;0.10;;;6.50;99.90;;;;;;4432064;26;20368;-58
2024/04/17 02:46:31;;;;;;;0.40;0.30;;;6.40;99.90;;;;;;4432214;26;20004;-60
2024/04/17 02:48:32;;;;;;;0.67;0.20;;;6.40;99.90;;;;;;4450224;26;20072;-60
2024/04/17 02:50:39;;;;;;;0.33;0.00;;;6.40;99.90;;;;;;4450542;26;20016;-60
2024/04/17 02:52:40;;;;;;;0.30;0.10;;;6.40;99.90;;;;;;4449218;26;20084;-57
2024/04/17 02:54:41;;;;;;;4.30;0.30;;;6.30;99.90;;;;;;4451204;26;20508;-61
2024/04/17 02:56:42;;;;;;;2.10;0.10;;;6.20;99.90;;;;;;4434530;26;20009;-60
2024/04/17 02:58:43;;;;;;;0.20;0.10;;;6.10;99.90;;;;;;4430361;26;20000;-58
2024/04/17 03:00:44;;;;;;;0.70;0.20;;;6.10;99.90;;;;;;4428076;26;20167;-59
2024/04/17 03:02:45;;;;;;;1.43;0.23;;;6.10;99.90;;;;;;4450643;26;20012;-59
2024/04/17 03:04:46;;;;;;;1.23;0.10;;;6.00;99.90;;;;;;4449495;26;20012;-61
2024/04/17 03:06:47;;;;;;;1.63;0.27;;;6.00;99.90;;;;;;4447524;26;20016;-56
2024/04/17 03:08:49;;;;;;;3.53;0.33;;;5.90;99.90;;;;;;4423448;26;20101;-57
2024/04/17 03:11:00;;;;;;;0.70;0.10;;;5.80;99.90;;;;;;4428508;26;20012;-54
2024/04/17 03:13:02;;;;;;;0.10;0.10;;;5.80;99.90;;;;;;4424473;26;20009;-60
2024/04/17 03:15:04;;;;;;;0.93;0.20;;;5.80;99.90;;;;;;4435252;26;20009;-59
2024/04/17 03:17:06;;;;;;;1.10;0.27;;;5.80;99.90;;;;;;4443599;26;20412;-56
2024/04/17 03:19:07;;;;;;;0.40;0.20;;;5.70;99.90;;;;;;4443712;26;20013;-59
2024/04/17 03:21:08;;;;;;;2.53;0.10;;;5.70;99.90;;;;;;4442760;26;20013;-61
2024/04/17 03:23:10;;;;;;;0.97;0.23;;;5.70;99.90;;;;;;4431233;26;20069;-62
2024/04/17 03:25:11;;;;;;;0.43;0.20;;;5.70;99.90;;;;;;4431673;26;20055;-57
2024/04/17 03:27:13;;;;;;;0.97;0.20;;;5.70;99.90;;;;;;4420628;26;20001;-60
2024/04/17 03:29:14;;;;;;;1.50;0.50;;;5.70;99.90;;;;;;4423437;26;20009;-60
2024/04/17 03:31:15;;;;;;;0.17;0.10;;;5.70;99.90;;;;;;4420021;26;20073;-55
2024/04/17 03:33:16;;;;;;;1.13;0.10;;;5.70;99.90;;;;;;4421022;26;20013;-57
2024/04/17 03:35:18;;;;;;;1.23;0.20;;;5.60;99.90;;;;;;4421831;26;20005;-59
2024/04/17 03:37:19;;;;;;;0.43;0.10;;;5.60;99.90;;;;;;4427530;26;20020;-59
2024/04/17 03:39:21;;;;;;;0.73;0.10;;;5.50;99.90;;;;;;4429204;26;20161;-56
2024/04/17 03:41:22;;;;;;;0.83;0.27;;;5.40;99.90;;;;;;4448284;26;20080;-55
2024/04/17 03:43:23;;;;;;;2.07;0.40;;;5.40;99.90;;;;;;4446054;26;20016;-61
2024/04/17 03:45:25;;;;;;;0.30;0.20;;;5.50;99.90;;;;;;4446566;26;20582;-59
2024/04/17 03:47:26;;;;;;;1.33;0.30;;;5.50;99.90;;;;;;4446682;26;20005;-55
2024/04/17 03:49:27;;;;;;;1.00;0.20;;;5.50;99.90;;;;;;4422707;26;20449;-56
2024/04/17 03:51:28;;;;;;;0.90;0.20;;;5.40;99.90;;;;;;4428971;26;20420;-58
2024/04/17 03:53:30;;;;;;;0.93;0.27;;;5.40;99.90;;;;;;4445144;26;20017;-59
2024/04/17 03:55:31;;;;;;;1.00;0.20;;;5.40;99.90;;;;;;4440197;26;20016;-57
2024/04/17 03:57:32;;;;;;;0.80;0.27;;;5.30;99.90;;;;;;4423958;26;20078;-57
2024/04/17 03:59:33;;;;;;;1.07;0.40;;;5.30;99.90;;;;;;4423359;26;20005;-60
2024/04/17 04:01:36;;;;;;;1.27;0.27;;;5.20;99.90;;;;;;4443064;26;20015;-60
2024/04/17 04:03:37;;;;;;;1.07;0.37;;;5.10;99.90;;;;;;4450136;26;20012;-56
2024/04/17 04:05:43;;;;;;;2.47;0.33;;;5.10;99.90;;;;;;4435546;26;20461;-58
2024/04/17 04:07:44;;;;;;;0.70;0.30;;;5.00;99.90;;;;;;4450040;26;20073;-57
2024/04/17 04:09:45;;;;;;;0.50;0.00;;;5.00;99.90;;;;;;4448688;26;20000;-59
2024/04/17 04:11:47;;;;;;;0.50;0.10;;;4.90;99.90;;;;;;4447332;26;20016;-59
2024/04/17 04:13:50;;;;;;;0.07;0.00;;;4.80;99.90;;;;;;4446238;26;20012;-60
2024/04/17 04:15:54;;;;;;;0.40;0.10;;;4.80;99.90;;;;;;4438513;26;20090;-57
2024/04/17 04:17:56;;;;;;;0.40;0.10;;;4.80;99.90;;;;;;4419953;26;20407;-60
2024/04/17 04:19:57;;;;;;;0.20;0.10;;;4.70;99.90;;;;;;4420329;26;20227;-58
2024/04/17 04:21:58;;;;;;;1.00;0.10;;;4.70;99.90;;;;;;4447241;26;20028;-56
2024/04/17 04:23:59;;;;;;;0.10;0.10;;;4.70;99.90;;;;;;4448221;26;20234;-62
2024/04/17 04:26:01;;;;;;;1.83;0.23;;;4.60;99.90;;;;;;4443075;26;20672;-59
2024/04/17 04:28:02;;;;;;;0.20;0.10;;;4.60;99.90;;;;;;4448527;26;20008;-59
2024/04/17 04:30:04;;;;;;;0.20;0.10;;;4.60;99.90;;;;;;4449166;26;20222;-55
2024/04/17 04:32:05;;;;;;;0.43;0.20;;;4.50;99.90;;;;;;4446437;26;20238;-59
2024/04/17 04:34:06;;;;;;;6.53;0.40;;;4.50;99.90;;;;;;4474769;26;20022;-60
2024/04/17 04:36:08;;;;;;;0.77;0.30;;;4.60;99.90;;;;;;4477601;26;20446;-57
2024/04/17 04:38:09;;;;;;;0.67;0.10;;;4.60;99.90;;;;;;4427891;26;20328;-63
2024/04/17 04:40:10;;;;;;;0.27;0.10;;;4.60;99.90;;;;;;4419678;26;20383;-63
2024/04/17 04:42:12;;;;;;;0.60;0.10;;;4.60;99.90;;;;;;4419234;26;20016;-59
2024/04/17 04:44:13;;;;;;;0.60;0.20;;;4.50;99.90;;;;;;4421171;26;20741;-58
2024/04/17 04:46:14;;;;;;;0.10;0.10;;;4.40;99.90;;;;;;4420102;26;20235;-56
2024/04/17 04:48:15;;;;;;;0.30;0.27;;;4.30;99.90;;;;;;4421945;26;20239;-64
2024/04/17 04:50:17;;;;;;;0.20;0.10;;;4.30;99.90;;;;;;4419139;26;20236;-57
2024/04/17 04:52:18;;;;;;;0.97;0.20;;;4.30;99.90;;;;;;4419801;26;20073;-57
2024/04/17 04:54:19;;;;;;;4.20;1.90;;;4.40;99.90;;;;;;4419119;26;20239;-58
2024/04/17 04:56:21;;;;;;;0.40;0.30;;;4.40;99.90;;;;;;4421816;26;20053;-59
2024/04/17 04:58:22;;;;;;;0.70;0.27;;;4.40;99.90;;;;;;4425118;26;20218;-58
2024/04/17 05:00:23;;;;;;;0.17;0.10;;;4.30;99.90;;;;;;4421319;26;20227;-56
2024/04/17 05:02:24;;;;;;;0.63;0.30;;;4.30;99.90;;;;;;4420126;26;20713;-54
2024/04/17 05:04:26;;;;;;;0.30;0.10;;;4.20;99.90;;;;;;4416962;26;20239;-54
2024/04/17 05:06:27;;;;;;;0.50;0.10;;;4.20;99.90;;;;;;4416368;26;20077;-59
2024/04/17 05:08:28;;;;;;;0.30;0.30;;;4.10;99.90;;;;;;4420238;26;20082;-56
2024/04/17 05:10:29;;;;;;;0.17;0.10;;;4.20;99.90;;;;;;4420602;26;20334;-61
2024/04/17 05:12:31;;;;;;;0.50;0.10;;;4.20;99.90;;;;;;4419201;26;20235;-61
2024/04/17 05:14:32;;;;;;;0.17;0.00;;;4.00;99.90;;;;;;4416613;26;20227;-59
2024/04/17 05:16:33;;;;;;;0.70;0.10;;;4.10;99.90;;;;;;4418017;26;20000;-61
2024/04/17 05:18:34;;;;;;;0.60;0.43;;;4.20;99.90;;;;;;4417947;26;20331;-56
2024/04/17 05:20:36;;;;;;;0.77;0.10;;;4.20;99.90;;;;;;4418582;26;20231;-58
2024/04/17 05:22:37;;;;;;;0.73;0.10;;;4.20;99.90;;;;;;4419478;26;20613;-60
2024/04/17 05:24:38;;;;;;;1.67;0.27;;;4.30;99.90;;;;;;4418059;26;20406;-61
2024/04/17 05:26:39;;;;;;;0.10;0.10;;;4.30;99.90;;;;;;4418731;26;20423;-57
2024/04/17 05:28:41;;;;;;;0.30;0.13;;;4.30;99.90;;;;;;4418859;26;20227;-60
2024/04/17 05:30:42;;;;;;;0.83;0.30;;;4.20;99.90;;;;;;4419789;26;20243;-57
2024/04/17 05:32:46;;;;;;;1.63;0.20;;;4.20;99.90;;;;;;4418628;26;20083;-59
2024/04/17 05:34:47;;;;;;;0.53;0.10;;;4.20;99.90;;;;;;4418993;26;20326;-59
2024/04/17 05:36:48;;;;;;;0.97;0.20;;;4.30;99.90;;;;;;4417921;26;20318;-59
2024/04/17 05:38:49;;;;;;;0.87;0.10;;;4.20;99.90;;;;;;4419479;26;20789;-55
2024/04/17 05:40:51;;;;;;;1.70;0.10;;;4.30;99.90;;;;;;4418291;26;20227;-61
2024/04/17 05:42:52;;;;;;;0.43;0.10;;;4.30;99.90;;;;;;4418695;26;20725;-60
2024/04/17 05:44:53;;;;;;;0.60;0.10;;;4.30;99.90;;;;;;4418773;26;20330;-52
2024/04/17 05:46:54;;;;;;;0.33;0.10;;;4.30;99.90;;;;;;4418312;26;20668;-57
2024/04/17 05:48:56;;;;;;;1.40;0.30;;;4.30;99.90;;;;;;4419113;26;20726;-56
2024/04/17 05:50:57;;;;;;;0.30;0.17;;;4.30;99.90;;;;;;4417683;26;20324;-59
2024/04/17 05:52:58;;;;;;;0.70;0.13;;;4.30;99.90;;;;;;4418922;26;20239;-57
2024/04/17 05:54:59;;;;;;;0.93;0.10;;;4.30;99.90;;;;;;4418132;26;20001;-57
2024/04/17 05:57:01;;;;;;;0.47;0.00;;;4.30;99.90;;;;;;4419888;26;20644;-58
2024/04/17 05:59:02;;;;;;;0.30;0.00;;;4.30;99.90;;;;;;4418757;26;20013;-57
2024/04/17 06:01:03;;;;;;;1.07;0.10;;;4.40;99.90;;;;;;4419642;26;20591;-58
2024/04/17 06:03:05;;;;;;;0.40;0.10;;;4.40;99.90;;;;;;4418290;26;20239;-57
2024/04/17 06:05:06;;;;;;;0.10;0.10;;;4.40;99.90;;;;;;4419155;26;20314;-58
2024/04/17 06:07:07;;;;;;;0.53;0.10;;;4.40;99.90;;;;;;4417218;26;20017;-56
2024/04/17 06:09:08;;;;;;;0.20;0.20;;;4.40;99.90;;;;;;4419746;26;20220;-58
2024/04/17 06:11:10;;;;;;;0.20;0.10;;;4.50;99.90;;;;;;4417275;26;20227;-58
2024/04/17 06:13:11;;;;;;;0.97;0.27;;;4.50;99.90;;;;;;4418488;26;20001;-58
2024/04/17 06:15:12;;;;;;;0.20;0.10;;;4.50;99.90;;;;;;4417929;26;20622;-62
2024/04/17 06:17:14;;;;;;;0.20;0.20;;;4.50;99.90;;;;;;4420068;26;20235;-59
2024/04/17 06:19:15;;;;;;;0.70;0.20;;;4.50;99.90;;;;;;4421620;26;20410;-58
2024/04/17 06:21:16;;;;;;;0.73;0.13;;;4.50;99.90;;;;;;4420794;26;20078;-59
2024/04/17 06:23:17;;;;;;;1.07;0.30;;;4.60;99.90;;;;;;4420915;26;20572;-58
2024/04/17 06:25:19;;;;;;;0.50;0.20;;;4.70;99.90;;;;;;4419889;26;20013;-59
2024/04/17 06:27:21;;;;;;;0.73;0.10;;;4.80;99.90;;;;;;4421516;26;20077;-57
2024/04/17 06:29:22;;;;;;;0.40;0.20;;;4.70;99.90;;;;;;4419788;26;20341;-59
2024/04/17 06:31:25;;;;;;;0.40;0.10;;;4.70;99.90;;;;;;4421355;26;20077;-62
2024/04/17 06:33:27;;;;;;;0.00;0.00;;;4.60;99.90;;;;;;4420699;26;20417;-58
2024/04/17 06:35:28;;;;;;;0.37;0.20;;;4.60;99.90;;;;;;4421795;26;20437;-59
2024/04/17 06:37:29;;;;;;;0.20;0.20;;;4.60;99.90;;;;;;4420126;26;20432;-60
2024/04/17 06:39:31;;;;;;;0.77;0.10;;;4.50;99.90;;;;;;4421947;26;20235;-60
2024/04/17 06:41:32;;;;;;;0.47;0.17;;;4.50;99.90;;;;;;4419754;26;20016;-58
2024/04/17 06:43:33;;;;;;;0.20;0.10;;;4.40;99.90;;;;;;4420921;26;21095;-59
2024/04/17 06:45:36;;;;;;;0.37;0.17;;;4.40;99.90;;;;;;4420147;26;20005;-56
2024/04/17 06:47:37;;;;;;;0.90;0.30;;;4.40;99.90;;;;;;4421007;26;20733;-61
2024/04/17 06:49:39;;;;;;;0.87;0.30;;;4.50;99.90;;;;;;4421051;26;20595;-60
2024/04/17 06:51:40;;;;;;;0.50;0.30;;;4.50;99.90;;;;;;4420730;26;20215;-58
2024/04/17 06:53:42;;;;;;;1.10;0.30;;;4.50;99.90;;;;;;4421585;26;20078;-57
2024/04/17 06:55:43;;;;;;;0.23;0.17;;;4.60;99.90;;;;;;4420023;26;20317;-57
2024/04/17 06:57:44;;;;;;;0.80;0.50;;;4.60;99.90;;;;;;4421178;26;20074;-60
2024/04/17 06:59:45;;;;;;;0.37;0.20;;;4.60;99.90;;;;;;4419768;26;20333;-56
2024/04/17 07:01:47;;;;;;;1.07;0.30;;;4.70;99.90;;;;;;4421590;26;20874;-58
2024/04/17 07:03:48;;;;;;;0.40;0.30;;;4.80;99.90;;;;;;4420562;26;20454;-62
2024/04/17 07:06:00;;;;;;;0.80;0.20;;;4.90;99.90;;;;;;4420246;26;20012;-60
2024/04/17 07:08:02;;;;;;;0.70;0.20;;;5.00;99.90;;;;;;4420780;26;20331;-59
2024/04/17 07:10:04;;;;;;;1.03;0.30;;;5.10;99.90;;;;;;4420422;26;20081;-58
2024/04/17 07:12:05;;;;;;;0.47;0.33;;;4.90;99.90;;;;;;4419156;26;20334;-60
2024/04/17 07:14:07;;;;;;;0.53;0.30;;;5.00;99.90;;;;;;4419037;26;20539;-60
2024/04/17 07:16:09;;;;;;;2.20;0.10;;;4.90;99.90;;;;;;4418576;26;20082;-60
2024/04/17 07:18:10;;;;;;;0.67;0.13;;;4.90;99.90;;;;;;4420369;26;20012;-60
2024/04/17 07:20:13;;;;;;;0.70;0.60;;;4.90;99.90;;;;;;4420232;26;20852;-57
2024/04/17 07:22:14;;;;;;;0.60;0.60;;;5.00;99.90;;;;;;4419487;26;20419;-62
2024/04/17 07:24:16;;;;;;;0.43;0.30;;;5.10;99.90;;;;;;4419524;26;20074;-58
2024/04/17 07:26:18;;;;;;;0.90;0.43;;;5.20;99.90;;;;;;4419782;26;20008;-60
2024/04/17 07:28:19;;;;;;;0.20;0.13;;;5.20;99.90;;;;;;4419214;26;20073;-61
2024/04/17 07:30:21;;;;;;;0.93;0.30;;;5.30;99.90;;;;;;4419192;26;20073;-60
2024/04/17 07:32:22;;;;;;;0.80;0.40;;;5.30;99.90;;;;;;4419870;26;20081;-59
2024/04/17 07:34:23;;;;;;;0.50;0.20;;;5.30;99.90;;;;;;4419642;26;20012;-60
2024/04/17 07:36:24;;;;;;;0.60;0.30;;;5.40;99.90;;;;;;4420637;26;20078;-59
2024/04/17 07:38:26;;;;;;;0.57;0.27;;;5.50;99.90;;;;;;4419815;26;20025;-61
2024/04/17 07:40:27;;;;;;;0.40;0.10;;;5.50;99.90;;;;;;4420318;26;20077;-60
2024/04/17 07:42:28;;;;;;;1.10;0.20;;;5.50;99.90;;;;;;4419622;26;20360;-60
2024/04/17 07:44:29;;;;;;;0.40;0.30;;;5.60;99.90;;;;;;4420263;26;20077;-60
2024/04/17 07:46:31;;;;;;;0.17;0.13;;;5.50;99.90;;;;;;4418882;26;20025;-59
2024/04/17 07:48:32;;;;;;;1.90;0.20;;;5.50;99.90;;;;;;4419962;26;20008;-58
2024/04/17 07:50:33;;;;;;;0.30;0.20;;;5.50;99.90;;;;;;4419323;26;20972;-58
2024/04/17 07:52:35;;;;;;;0.70;0.30;;;5.60;99.90;;;;;;4419608;26;20017;-61
2024/04/17 07:54:36;;;;;;;0.47;0.20;;;5.60;99.90;;;;;;4419373;26;20073;-59
2024/04/17 07:56:38;;;;;;;1.53;0.10;;;5.70;99.90;;;;;;4419771;26;20009;-60
2024/04/17 07:58:39;;;;;;;0.97;0.30;;;5.70;99.90;;;;;;4420451;26;20445;-60
2024/04/17 08:00:41;;;;;;;0.20;0.10;;;5.80;99.90;;;;;;4419509;26;20151;-60
2024/04/17 08:02:45;;;;;;;0.20;0.10;;;5.80;99.90;;;;;;4420787;26;20472;-58
2024/04/17 08:04:47;;;;;;;0.33;0.13;;;5.80;99.90;;;;;;4418773;26;20012;-60
2024/04/17 08:06:48;;;;;;;1.43;0.20;;;5.70;99.90;;;;;;4419549;26;20453;-60
2024/04/17 08:08:49;;;;;;;0.77;0.20;;;5.80;99.90;;;;;;4418906;26;20008;-58
2024/04/17 08:10:51;;;;;;;0.43;0.20;;;5.90;99.90;;;;;;4420004;26;20051;-60
2024/04/17 08:12:58;;;;;;;0.30;0.30;;;5.90;99.90;;;;;;4418517;26;20079;-60
2024/04/17 08:14:59;;;;;;;0.43;0.20;;;5.80;99.90;;;;;;4420139;26;20074;-57
2024/04/17 08:17:00;;;;;;;0.83;0.33;;;5.90;99.90;;;;;;4418659;26;20406;-61
2024/04/17 08:19:02;;;;;;;0.60;0.30;;;6.00;99.90;;;;;;4419820;26;20415;-60
2024/04/17 08:21:04;;;;;;;1.77;0.67;;;6.10;99.90;;;;;;4418496;26;20405;-60
2024/04/17 08:23:05;;;;;;;0.50;0.33;;;6.10;99.90;;;;;;4419194;26;20090;-61
2024/04/17 08:25:07;;;;;;;1.17;0.30;;;6.20;99.90;;;;;;4418734;26;20082;-61
2024/04/17 08:27:08;;;;;;;1.33;0.23;;;6.20;99.90;;;;;;4419736;26;20141;-61
2024/04/17 08:29:09;;;;;;;0.50;0.30;;;6.20;99.90;;;;;;4419267;26;20005;-59
2024/04/17 08:31:11;;;;;;;1.07;0.30;;;6.20;99.90;;;;;;4418650;26;20012;-56
2024/04/17 08:33:12;;;;;;;0.77;0.20;;;6.20;99.90;;;;;;4419299;26;20112;-60
2024/04/17 08:35:14;;;;;;;1.03;0.30;;;6.30;99.90;;;;;;4416577;26;20012;-57
2024/04/17 08:37:15;;;;;;;0.67;0.30;;;6.30;99.90;;;;;;4420046;26;20077;-60
2024/04/17 08:39:16;;;;;;;0.50;0.30;;;6.40;99.90;;;;;;4418110;26;20107;-61
2024/04/17 08:41:20;;;;;;;0.50;0.10;;;6.40;99.90;;;;;;4419972;26;20081;-59
2024/04/17 08:43:25;;;;;;;1.77;0.30;;;6.50;99.90;;;;;;4418146;26;20379;-59
2024/04/17 08:45:36;;;;;;;0.57;0.20;;;6.50;99.90;;;;;;4419715;26;20520;-61
2024/04/17 08:47:41;;;;;;;0.60;0.28;;;6.50;99.90;;;;;;4418356;26;20051;-60
2024/04/17 08:49:44;;;;;;;0.70;0.30;;;6.70;99.90;;;;;;4420258;26;20101;-60
2024/04/17 08:51:46;;;;;;;0.53;0.47;;;6.80;99.90;;;;;;4418791;26;20128;-58
2024/04/17 08:53:48;;;;;;;0.70;0.30;;;6.90;99.90;;;;;;4419712;26;19997;-61
2024/04/17 08:55:50;;;;;;;0.70;0.30;;;6.80;99.90;;;;;;4418438;26;20427;-59
2024/04/17 08:57:51;;;;;;;0.57;0.50;;;6.90;99.90;;;;;;4419662;26;20092;-61
2024/04/17 08:59:53;;;;;;;1.03;0.30;;;6.90;99.90;;;;;;4418863;26;20082;-60
2024/04/17 09:01:58;;;;;;;0.63;0.30;;;7.10;99.90;;;;;;4419844;26;20077;-60
2024/04/17 09:04:01;;;;;;;0.47;0.30;;;7.10;99.90;;;;;;4419261;26;20078;-60
2024/04/17 09:06:04;;;;;;;0.33;0.20;;;7.10;99.90;;;;;;4418841;26;20013;-60
2024/04/17 09:08:07;;;;;;;0.57;0.50;;;7.10;99.90;;;;;;4419787;26;20009;-60
2024/04/17 09:10:09;;;;;;;0.90;0.50;;;7.10;99.90;;;;;;4418329;26;20108;-59
2024/04/17 09:12:14;;;;;;;0.83;0.50;;;7.20;99.90;;;;;;4419856;26;20089;-62
2024/04/17 09:14:17;;;;;;;0.40;0.20;;;7.20;99.90;;;;;;4418375;26;20388;-58
2024/04/17 09:16:18;;;;;;;1.73;0.40;;;7.30;99.90;;;;;;4419072;26;20012;-59
2024/04/17 09:18:26;;;;;;;0.70;0.40;;;7.30;99.90;;;;;;4417835;26;20013;-60
2024/04/17 09:20:27;;;;;;;1.60;0.47;;;7.30;99.90;;;;;;4418930;26;20474;-60
2024/04/17 09:22:30;;;;;;;2.20;0.40;;;7.40;99.90;;;;;;4417795;26;20421;-60
2024/04/17 09:24:39;;;;;;;2.50;0.70;;;7.40;99.90;;;;;;4419248;26;20727;-61
2024/04/17 09:26:40;;;;;;;1.03;0.50;;;7.50;99.90;;;;;;4418660;26;20016;-59
2024/04/17 09:28:42;;;;;;;3.30;0.70;;;7.50;99.90;;;;;;4417261;26;20013;-63
2024/04/17 09:30:43;;;;;;;0.50;0.40;;;7.50;99.90;;;;;;4417082;26;20073;-60
2024/04/17 09:32:46;;;;;;;0.33;0.23;;;7.50;99.90;;;;;;4419652;26;20070;-60
2024/04/17 09:34:48;;;;;;;0.60;0.40;;;7.50;99.90;;;;;;4418374;26;20013;-61
2024/04/17 09:36:49;;;;;;;0.83;0.47;;;7.60;99.90;;;;;;4418384;26;20105;-62
2024/04/17 09:38:50;;;;;;;3.17;0.40;;;7.70;99.90;;;;;;4418935;26;20004;-61
2024/04/17 09:40:52;;;;;;;2.73;0.50;;;7.70;99.90;;;;;;4418411;26;20009;-59
2024/04/17 09:42:55;;;;;;;1.33;0.60;;;7.80;99.90;;;;;;4416734;26;20051;-59
2024/04/17 09:45:00;;;;;;;2.20;0.60;;;7.80;99.90;;;;;;4417482;26;20444;-62
2024/04/17 09:47:04;;;;;;;0.70;0.50;;;7.80;99.90;;;;;;4419013;26;20013;-60
2024/04/17 09:49:20;;;;;;;3.40;0.77;;;7.80;99.90;;;;;;4418126;26;20054;-62
2024/04/17 09:51:23;;;;;;;2.30;0.57;;;7.90;99.90;;;;;;4420059;26;20108;-61
2024/04/17 09:53:29;;;;;;;1.23;0.40;;;8.00;99.90;;;;;;4420372;26;20072;-62
2024/04/17 09:55:32;;;;;;;1.43;0.43;;;8.00;99.90;;;;;;4421099;26;20093;-61
2024/04/17 09:57:33;;;;;;;0.30;0.30;;;7.90;99.90;;;;;;4419077;26;20078;-62
2024/04/17 09:59:35;;;;;;;0.90;0.43;;;7.90;99.90;;;;;;4419530;26;20698;-63
2024/04/17 10:01:38;;;;;;;1.00;0.50;;;7.90;99.90;;;;;;4421201;26;20383;-62
2024/04/17 10:03:41;;;;;;;1.00;0.90;;;7.90;99.90;;;;;;4421563;26;20016;-61
2024/04/17 10:05:43;;;;;;;1.73;0.50;;;7.80;99.90;;;;;;4418345;26;20017;-58
2024/04/17 10:07:45;;;;;;;0.63;0.40;;;7.90;99.90;;;;;;4422090;26;20079;-60
2024/04/17 10:09:48;;;;;;;0.70;0.50;;;8.00;99.90;;;;;;4420631;26;20074;-63
2024/04/17 10:11:52;;;;;;;2.33;0.60;;;8.00;99.90;;;;;;4421501;26;20074;-60
2024/04/17 10:13:54;;;;;;;0.70;0.30;;;8.00;99.90;;;;;;4419981;26;20074;-60
2024/04/17 10:15:56;;;;;;;0.60;0.40;;;8.00;99.90;;;;;;4421905;26;20001;-60
2024/04/17 10:17:57;;;;;;;0.60;0.60;;;8.00;99.90;;;;;;4420298;26;20069;-61
2024/04/17 10:19:58;;;;;;;0.73;0.37;;;8.00;99.90;;;;;;4420896;26;20894;-59
2024/04/17 10:22:07;;;;;;;0.50;0.30;;;8.00;99.90;;;;;;4420014;26;20074;-60
2024/04/17 10:24:10;;;;;;;0.73;0.37;;;8.00;99.90;;;;;;4421322;26;20004;-60
2024/04/17 10:26:12;;;;;;;0.30;0.23;;;8.00;99.90;;;;;;4420808;26;20001;-60
2024/04/17 10:28:14;;;;;;;1.17;0.83;;;8.10;99.90;;;;;;4420760;26;20074;-61
2024/04/17 10:30:17;;;;;;;0.43;0.40;;;8.10;99.90;;;;;;4420700;26;20382;-61
2024/04/17 10:32:19;;;;;;;0.73;0.20;;;8.00;99.90;;;;;;4420433;26;20001;-58
2024/04/17 10:34:20;;;;;;;3.03;0.30;;;7.90;99.90;;;;;;4421499;26;20074;-60
2024/04/17 10:36:21;;;;;;;2.13;0.60;;;7.90;99.90;;;;;;4418997;26;20012;-61
2024/04/17 10:38:25;;;;;;;0.70;0.20;;;7.90;99.90;;;;;;4421246;26;20496;-59
2024/04/17 10:40:26;;;;;;;2.00;0.90;;;7.90;99.90;;;;;;4420282;26;20078;-60
2024/04/17 10:42:28;;;;;;;0.70;0.57;;;7.90;99.90;;;;;;4420298;26;20012;-60
2024/04/17 10:44:29;;;;;;;0.70;0.30;;;7.90;99.90;;;;;;4419499;26;20012;-59